Logo AVAMET
Benvolgut visitant, si us plau, ingressa Recuperar contrasenya
AVAMET paisatges

Quart de Poblet

Dades diàries. Acumulats / Últims 30 dies disponibles

Data Temperatura (°C) Humitat rel. (%) Pressió rel. (hPa) Vent (km/h) Precipitació
Mínima Mitjana Màxima Amplitud
tèrmica
Mínima Mitjana Màxima Mínima Mitjana Màxima Predom. Mitjana Ràfega
màxima
Total
(mm)
Índex-n
Mínima Mitjana Màxima Mínima Mitjana Màxima n
0 a 1
P0 max
mm 5'
Dades mensuals acumulades fins l'últim dia disponible
05/2020 13,0 16,7 20,1 21,3 20,0 26,0 33,5 20,5 28 65 91 1.003 1.017 1.029   5,5 49,9 39,0
Dades anuals acumulades fins l'últim dia disponible
2020 1,5 11,2 20,1 15,4 9,2 20,3 33,5 32,0 17 70 95 998 1.020 1.035   5,1 77,2 296,6
Últims 30 dies disponibles
31-05-2020 16,7     21,7     26,1 9,4 46 62 78 1.012 1.014 1.016 SSE 6,6 27,4 0,0
30-05-2020 17,2     21,9     26,4 9,2 36 60 74 1.013 1.015 1.017 W 6,0 27,4 0,0
29-05-2020 15,8     22,4     28,1 12,3 38 57 74 1.014 1.017 1.022 E 6,3 30,6 0,0
28-05-2020 17,3     21,7     26,2 8,9 37 67 85 1.021 1.024 1.027 ENE 5,3 24,1 0,0
27-05-2020 17,6     21,9     26,5 8,9 42 66 82 1.025 1.025 1.027 NE 7,6 32,2 0,0
26-05-2020 17,2     21,9     26,2 9,0 47 68 84 1.024 1.026 1.027 NE 4,3 24,1 0,0
25-05-2020 17,0     21,0     25,2 8,2 47 68 82 1.024 1.026 1.027 ENE 3,9 17,7 0,0
24-05-2020 20,1     21,8     23,9 3,8 65 74 85 1.026 1.027 1.029 ENE 6,0 24,1 0,0
23-05-2020 18,3     23,3     27,8 9,5 44 62 77 1.023 1.024 1.026 NNE 4,5 25,7 0,0
22-05-2020 19,0     23,9     30,0 11,0 39 60 72 1.020 1.022 1.025 NE 4,2 20,9 0,0
21-05-2020 17,8     23,7     30,3 12,5 31 58 78 1.017 1.019 1.021 W 4,0 22,5 0,0
20-05-2020 18,3     23,2     28,8 10,5 38 60 77 1.014 1.015 1.017 W 4,8 20,9 0,0
19-05-2020 15,9     22,7     29,1 13,2 40 59 77 1.015 1.017 1.020 W 4,8 22,5 0,0
18-05-2020 15,1     20,6     26,0 10,9 44 66 83 1.019 1.020 1.022 W 4,8 22,5 0,0
17-05-2020 15,1     19,6     23,2 8,1 47 65 84 1.019 1.020 1.022 NW 4,2 20,9 0,0
16-05-2020 15,5     18,2     21,8 6,3 58 74 86 1.015 1.016 1.019 NW 3,5 24,1 0,0
15-05-2020 13,0     17,0     20,4 7,4 58 73 85 1.010 1.012 1.015 SW 3,9 20,9 0,8
14-05-2020 13,8     17,1     20,0 6,2 57 73 91 1.003 1.005 1.010 W 6,6 30,6 30,2
13-05-2020 13,9     19,6     25,4 11,5 38 59 83 1.003 1.005 1.007 SW 6,9 30,6 0,2
12-05-2020 16,0     19,2     22,2 6,2 54 69 87 1.007 1.009 1.011 NNE 6,4 32,2 2,4
11-05-2020 16,3     21,2     26,3 10,0 36 52 66 1.006 1.008 1.011 SW 11,7 41,8 0,0
10-05-2020 16,1     20,4     25,1 9,0 32 62 90 1.003 1.005 1.009 SW 9,2 49,9 5,4
09-05-2020 17,2     19,9     23,2 6,0 64 78 88 1.009 1.012 1.016 NE 4,0 19,3 0,0
08-05-2020 16,9     19,8     23,2 6,3 63 73 86 1.014 1.017 1.019 NE 4,5 37,0 0,0
07-05-2020 16,8     20,9     25,1 8,3 45 71 85 1.017 1.018 1.020 NE 4,3 25,7 0,0
06-05-2020 16,8     21,6     26,8 10,0 49 69 85 1.015 1.016 1.018 NNE 3,5 22,5 0,0
05-05-2020 16,4     21,3     26,1 9,7 52 70 83 1.013 1.014 1.016 NE 3,4 20,9 0,0
04-05-2020 16,2     20,3     24,6 8,4 65 76 86 1.014 1.016 1.018 NNE 3,1 19,3 0,0
03-05-2020 18,3     23,1     27,6 9,3 39 58 79 1.016 1.017 1.019 ENE 4,0 20,9 0,0
02-05-2020 19,5     25,9     33,5 14,0 28 49 67 1.014 1.017 1.019 SW 6,4 30,6 0,0
Últims 13 mesos disponibles
04/2020 8,8 12,7 18,1 16,2 15,4 20,6 26,7 17,9 45 73 90 1.005 1.016 1.026 W 4,4 43,5 75,2
03/2020 6,2 10,5 15,7 14,2 11,8 18,3 25,1 18,9 42 69 91 1.006 1.017 1.027 NNE 6,9 77,2 73,4
02/2020 6,1 9,5 13,3 14,5 14,0 20,8 26,9 20,8 46 69 87 1.012 1.025 1.033 W 3,9 46,7 1,4
01/2020 1,5 6,7 14,4 10,8 9,2 16,1 22,2 20,7 55 74 91 1.018 1.025 1.032 W 4,8 69,2 107,6
12/2019 5,1 10,2 17,4 13,6 12,7 18,1 24,7 19,6 50 69 91 1.002 1.019 1.033 W 6,1 83,7 85,2
11/2019 4,9 11,9 21,1 15,7 15,9 20,0 28,9 24,0 41 55 78 998 1.010 1.018 SW 8,3 54,7 5,0
10/2019 11,2 16,0 20,7 20,3 16,2 25,6 35,2 24,0 41 67 83 1.007 1.016 1.022 W 4,2 38,6 26,4
09/2019 15,7 20,1 23,7 23,9 21,1 28,1 34,4 18,7 42 70 81 1.010 1.017 1.025 W 5,4 51,5 170,2
08/2019 18,4 22,5 27,1 26,7 27,1 31,2 41,5 23,1 42 68 78 1.010 1.016 1.020 ENE 5,3 48,3 8,6
07/2019 21,6 22,7 25,0 27,1 28,0 31,6 37,6 16,0 49 64 77 1.005 1.014 1.021 ENE 5,5 40,2 11,4
06/2019 13,2 18,2 22,8 23,0 21,9 27,6 36,4 23,2 37 62 78 1.008 1.015 1.022 NNE 5,8 51,5 0,0
05/2019 9,2 14,6 20,7 18,9 18,9 23,5 32,7 23,5 47 65 84 1.005 1.015 1.024 W 5,7 49,9 30,8
04/2019 8,6 11,4 13,9 15,5 15,3 20,2 30,0 21,4 42 65 93 999 1.013 1.025 SW 7,3 61,2 77,2
Tots els anys disponibles
2019 1,6 14,2 27,1 18,6 12,3 23,5 41,5 39,9 35 63 93 994 1.017 1.033 W 5,8 83,7 437,0
2017
Temperatura (°C)
Humitat relativa (%)
Velocitat del vent i ràfega màxima (km/h)
Direcció del vent (°)
Pressió (hPa)
Precipitació (mm)
Nota sobre les dades: s'avisa a l'usuari de la provisionalitat i no oficialitat d'aquestes dades
Logo AVAMET blanc
Web allotjada a Sollutia
Llicència de Creative CommonsLa web d'AVAMET i els seus continguts estan subjectes a una llicència de
Reconeixement - No Comercial - Compartir igual
Últimes estacions: Xodos - la Vega (Soci), la Vall d'Alba - Centre (Ajuntament soci), Chera (Ajuntament soci) - - -